Time;durP1;ratioP1;P1;durP2;ratioP2;P2;SDS_P1;SDS_P2;PMS_P1;PMS_P2;Temp;Humidity;BMP_temperature;BMP_pressure;BME280_temperature;BME280_humidity;BME280_pressure;Samples;Min_cycle;Max_cycle;Signal;HPM_P1;HPM_P2
2022/10/07 00:02:11;;;;;;;8.98;1.80;;;12.00;96.40;;;;;;5057385;28;20510;-71
2022/10/07 00:04:36;;;;;;;7.68;1.40;;;12.00;96.80;;;;;;5055342;28;20029;-71
2022/10/07 00:07:02;;;;;;;5.50;2.03;;;12.00;96.40;;;;;;5056107;28;20131;-71
2022/10/07 00:09:27;;;;;;;8.23;1.60;;;12.00;96.70;;;;;;5055828;28;20025;-70
2022/10/07 00:11:53;;;;;;;6.78;1.55;;;12.00;96.70;;;;;;5054473;28;20469;-70
2022/10/07 00:14:19;;;;;;;8.10;1.85;;;12.00;97.00;;;;;;5055826;28;20039;-70
2022/10/07 00:16:45;;;;;;;13.70;2.47;;;12.00;97.10;;;;;;5056296;28;20419;-71
2022/10/07 00:19:12;;;;;;;6.50;1.80;;;12.00;97.20;;;;;;5055357;28;20029;-71
2022/10/07 00:21:39;;;;;;;11.88;1.85;;;11.90;97.20;;;;;;5055912;28;20026;-70
2022/10/07 00:24:06;;;;;;;6.85;2.17;;;11.90;97.10;;;;;;5055213;28;20037;-71
2022/10/07 00:26:34;;;;;;;15.15;3.35;;;12.00;96.60;;;;;;5055874;28;20017;-71
2022/10/07 00:29:01;;;;;;;10.07;1.70;;;11.90;96.70;;;;;;5056310;28;20116;-71
2022/10/07 00:31:30;;;;;;;10.38;1.85;;;11.90;96.50;;;;;;5055286;28;20061;-72
2022/10/07 00:33:56;;;;;;;9.45;1.88;;;11.90;96.80;;;;;;5055541;28;20028;-72
2022/10/07 00:36:30;;;;;;;8.18;1.70;;;12.00;96.80;;;;;;5055565;28;20102;-71
2022/10/07 00:39:03;;;;;;;10.35;1.88;;;12.00;97.00;;;;;;5055101;28;20327;-71
2022/10/07 00:41:41;;;;;;;16.83;1.98;;;12.00;97.00;;;;;;5055279;28;20331;-69
2022/10/07 00:44:35;;;;;;;7.18;1.60;;;11.90;96.80;;;;;;5055561;28;20071;-71
2022/10/07 00:47:21;;;;;;;13.82;2.10;;;11.90;96.90;;;;;;5035070;28;20498;-71
2022/10/07 00:50:28;;;;;;;12.48;1.88;;;11.90;97.00;;;;;;5053582;28;20293;-71
2022/10/07 00:52:58;;;;;;;13.00;2.20;;;11.90;96.40;;;;;;5052897;28;20037;-71
2022/10/07 00:55:28;;;;;;;10.63;1.65;;;11.90;97.00;;;;;;5053978;28;20182;-72
2022/10/07 00:57:58;;;;;;;6.65;1.73;;;11.90;97.20;;;;;;5053773;28;20040;-72
2022/10/07 01:00:23;;;;;;;8.60;1.90;;;11.80;97.00;;;;;;5053787;28;20033;-70
2022/10/07 01:02:50;;;;;;;11.50;1.85;;;11.80;97.00;;;;;;5053624;28;20025;-72
2022/10/07 01:05:16;;;;;;;7.45;1.77;;;11.80;96.90;;;;;;5053400;28;20055;-72
2022/10/07 01:07:44;;;;;;;8.73;1.95;;;11.80;96.90;;;;;;5053578;28;20037;-71
2022/10/07 01:10:11;;;;;;;14.57;1.98;;;11.80;97.00;;;;;;5053517;28;20029;-72
2022/10/07 01:12:50;;;;;;;12.75;1.95;;;11.80;97.30;;;;;;5053349;28;20033;-70
2022/10/07 01:15:57;;;;;;;8.32;1.42;;;11.80;97.30;;;;;;5053135;28;20482;-71
2022/10/07 01:18:25;;;;;;;9.50;1.70;;;11.70;97.30;;;;;;5048739;28;20043;-71
2022/10/07 01:21:06;;;;;;;7.93;1.70;;;11.70;97.20;;;;;;5053410;28;20124;-71
2022/10/07 01:23:50;;;;;;;7.55;1.17;;;11.70;97.30;;;;;;5053485;28;20093;-71
2022/10/07 01:26:33;;;;;;;8.57;1.38;;;11.70;97.10;;;;;;5053630;28;20021;-71
2022/10/07 01:29:07;;;;;;;8.20;1.90;;;11.70;97.20;;;;;;5033199;28;20038;-71
2022/10/07 01:31:39;;;;;;;8.10;1.63;;;11.70;96.90;;;;;;5033247;28;20037;-72
2022/10/07 01:34:06;;;;;;;11.10;1.88;;;11.70;97.20;;;;;;5048695;28;20332;-71
2022/10/07 01:36:35;;;;;;;7.57;1.70;;;11.60;97.00;;;;;;5018914;28;20048;-72
2022/10/07 01:39:06;;;;;;;15.88;2.13;;;11.60;97.10;;;;;;5013537;28;20030;-71
2022/10/07 01:41:35;;;;;;;11.18;2.42;;;11.60;97.00;;;;;;5013242;28;20193;-72
2022/10/07 01:44:02;;;;;;;7.35;1.73;;;11.60;97.20;;;;;;5014039;28;20026;-72
2022/10/07 01:46:29;;;;;;;9.98;1.67;;;11.60;96.90;;;;;;5013208;28;20030;-71
2022/10/07 01:48:55;;;;;;;22.93;1.90;;;11.60;97.00;;;;;;5013047;28;20034;-72
2022/10/07 01:51:26;;;;;;;12.13;2.30;;;11.60;96.80;;;;;;5011792;28;20045;-71
2022/10/07 01:54:30;;;;;;;10.32;1.42;;;11.50;97.10;;;;;;5013451;28;20052;-72
2022/10/07 01:57:27;;;;;;;6.65;1.70;;;11.60;97.30;;;;;;5001900;28;20030;-72
2022/10/07 02:00:05;;;;;;;6.05;1.60;;;11.50;97.20;;;;;;5013511;28;20034;-72
2022/10/07 02:02:49;;;;;;;;;;;11.50;97.20;;;;;;5013608;28;20215;-73
2022/10/07 02:05:22;;;;;;;;;;;11.60;97.20;;;;;;5013979;28;19916;-71
2022/10/07 02:08:07;;;;;;;;;;;11.60;97.30;;;;;;5033017;28;19913;-71
2022/10/07 02:10:36;;;;;;;;;;;11.60;97.20;;;;;;5033262;28;19963;-72
2022/10/07 02:13:11;;;;;;;;;;;11.60;97.30;;;;;;5033042;28;19920;-73
2022/10/07 02:16:00;;;;;;;;;;;11.60;97.10;;;;;;5032723;28;19927;-72
2022/10/07 02:18:27;;;;;;;;;;;11.60;97.20;;;;;;5029832;28;19993;-71
2022/10/07 02:20:53;;;;;;;;;;;11.60;97.10;;;;;;5032917;28;19917;-71
2022/10/07 02:23:20;;;;;;;;;;;11.60;97.20;;;;;;5032923;28;19905;-71
2022/10/07 02:25:47;;;;;;;;;;;11.50;97.10;;;;;;5031839;28;19913;-72
2022/10/07 02:28:14;;;;;;;;;;;11.60;97.30;;;;;;5032625;28;20394;-73
2022/10/07 02:30:42;;;;;;;;;;;11.60;97.30;;;;;;5032736;28;19909;-72
2022/10/07 02:33:08;;;;;;;;;;;11.60;97.10;;;;;;5032851;28;20001;-72
2022/10/07 02:35:46;;;;;;;;;;;11.60;97.20;;;;;;5032529;28;20329;-71
2022/10/07 02:38:13;;;;;;;;;;;11.60;96.90;;;;;;5032909;28;19944;-71
2022/10/07 02:40:42;;;;;;;;;;;11.50;97.10;;;;;;5031308;28;19987;-72
2022/10/07 02:43:21;;;;;;;;;;;11.50;96.90;;;;;;5032301;28;19974;-72
2022/10/07 02:45:50;;;;;;;;;;;11.50;97.20;;;;;;5031285;28;20100;-72
2022/10/07 02:48:36;;;;;;;;;;;11.40;97.60;;;;;;5032589;28;19917;-72
2022/10/07 02:51:05;;;;;;;;;;;11.40;97.30;;;;;;5064443;28;19919;-71
2022/10/07 02:53:31;;;;;;;;;;;11.40;97.70;;;;;;5032687;28;19909;-71
2022/10/07 02:55:58;;;;;;;;;;;11.30;97.60;;;;;;5032619;28;20346;-71
2022/10/07 02:58:25;;;;;;;;;;;11.30;97.60;;;;;;5032086;28;19909;-72
2022/10/07 03:00:52;;;;;;;;;;;11.20;97.60;;;;;;5032224;28;19913;-70
2022/10/07 03:03:17;;;;;;;;;;;11.20;97.30;;;;;;5032082;28;20421;-71
2022/10/07 03:05:43;;;;;;;;;;;11.10;97.50;;;;;;5030810;28;19909;-71
2022/10/07 03:08:10;;;;;;;;;;;11.10;97.70;;;;;;5032142;28;19936;-71
2022/10/07 03:10:36;;;;;;;;;;;11.10;97.60;;;;;;5030806;28;20386;-73
2022/10/07 03:13:04;;;;;;;;;;;11.00;97.30;;;;;;5031715;28;19920;-71
2022/10/07 03:15:31;;;;;;;;;;;11.00;97.70;;;;;;5063849;28;19931;-71
2022/10/07 03:17:57;;;;;;;;;;;11.00;97.60;;;;;;5031840;28;19920;-71
2022/10/07 03:20:22;;;;;;;;;;;11.00;96.90;;;;;;5031772;28;19909;-72
2022/10/07 03:22:49;;;;;;;;;;;11.00;97.00;;;;;;5032213;28;19901;-72
2022/10/07 03:25:14;;;;;;;;;;;11.00;96.90;;;;;;5031811;28;19932;-72
2022/10/07 03:27:43;;;;;;;;;;;11.00;96.90;;;;;;5031861;28;19972;-72
2022/10/07 03:30:09;;;;;;;;;;;11.00;97.00;;;;;;5030537;28;19976;-72
2022/10/07 03:32:36;;;;;;;;;;;10.90;97.40;;;;;;5031444;28;19945;-72
2022/10/07 03:35:02;;;;;;;;;;;10.90;97.50;;;;;;5031220;28;19947;-72
2022/10/07 03:37:28;;;;;;;;;;;10.80;97.50;;;;;;5031494;28;19952;-72
2022/10/07 03:39:54;;;;;;;;;;;10.80;97.60;;;;;;5031419;28;19916;-71
2022/10/07 03:42:19;;;;;;;;;;;10.70;97.80;;;;;;5031625;28;19909;-71
2022/10/07 03:44:48;;;;;;;;;;;10.80;97.90;;;;;;5031318;28;20020;-71
2022/10/07 03:47:15;;;;;;;;;;;10.80;97.70;;;;;;5031608;28;19916;-71
2022/10/07 03:49:41;;;;;;;;;;;10.80;97.60;;;;;;5031578;28;19959;-71
2022/10/07 03:52:06;;;;;;;;;;;10.70;97.60;;;;;;5031217;28;19932;-71
2022/10/07 03:54:33;;;;;;;;;;;10.80;97.70;;;;;;5031350;28;19913;-71
2022/10/07 03:56:58;;;;;;;;;;;10.80;97.80;;;;;;5031382;28;19909;-71
2022/10/07 03:59:24;;;;;;;;;;;10.80;97.70;;;;;;5031503;28;19980;-72
2022/10/07 04:01:50;;;;;;;;;;;10.70;97.70;;;;;;5031621;28;20354;-72
2022/10/07 04:04:15;;;;;;;;;;;10.70;97.90;;;;;;5031319;28;19912;-72
2022/10/07 04:06:42;;;;;;;;;;;10.70;97.80;;;;;;5031287;28;19913;-71
2022/10/07 04:09:08;;;;;;;;;;;10.70;98.00;;;;;;5031057;28;19913;-72
2022/10/07 04:11:34;;;;;;;;;;;10.60;98.00;;;;;;5031165;28;19991;-71
2022/10/07 04:13:59;;;;;;;;;;;10.60;98.10;;;;;;5030594;28;20009;-72
2022/10/07 04:16:26;;;;;;;;;;;10.60;97.90;;;;;;5031053;28;19916;-72
2022/10/07 04:18:54;;;;;;;;;;;10.60;97.90;;;;;;5031153;28;19917;-72
2022/10/07 04:21:21;;;;;;;;;;;10.60;98.00;;;;;;5031206;28;19909;-72
2022/10/07 04:23:46;;;;;;;;;;;10.60;98.00;;;;;;5031162;28;20252;-73
2022/10/07 04:26:12;;;;;;;;;;;10.50;98.10;;;;;;5030251;28;19928;-72
2022/10/07 04:28:38;;;;;;;;;;;10.50;98.20;;;;;;5030865;28;19913;-71
2022/10/07 04:31:04;;;;;;;;;;;10.50;98.20;;;;;;5031154;28;19920;-72
2022/10/07 04:33:29;;;;;;;;;;;10.50;98.20;;;;;;5030972;28;19916;-72
2022/10/07 04:35:55;;;;;;;;;;;10.40;98.30;;;;;;5030783;28;19924;-73
2022/10/07 04:38:20;;;;;;;;;;;10.40;98.50;;;;;;5030992;28;19908;-72
2022/10/07 04:40:47;;;;;;;;;;;10.40;98.40;;;;;;5031265;28;19901;-71
2022/10/07 04:43:18;;;;;;;;;;;10.40;98.40;;;;;;5030880;28;19924;-72
2022/10/07 04:45:44;;;;;;;;;;;10.40;98.20;;;;;;5032546;28;19909;-71
2022/10/07 04:48:09;;;;;;;;;;;10.40;98.20;;;;;;5034645;28;19913;-72
2022/10/07 04:50:37;;;;;;;;;;;10.40;98.20;;;;;;5034489;28;19927;-72
2022/10/07 04:53:06;;;;;;;;;;;10.30;98.10;;;;;;5034826;28;19955;-72
2022/10/07 04:55:39;;;;;;;;;;;10.30;97.90;;;;;;5034412;28;19909;-72
2022/10/07 04:58:05;;;;;;;;;;;10.40;98.40;;;;;;5034443;28;20339;-72
2022/10/07 05:00:31;;;;;;;;;;;10.30;98.20;;;;;;5033051;28;19913;-72
2022/10/07 05:02:56;;;;;;;;;;;10.30;98.30;;;;;;5034321;28;20001;-72
2022/10/07 05:05:23;;;;;;;;;;;10.30;98.10;;;;;;5034306;28;19913;-73
2022/10/07 05:07:49;;;;;;;;;;;10.30;97.90;;;;;;5066776;28;19909;-72
2022/10/07 05:10:15;;;;;;;;;;;10.20;98.20;;;;;;5034176;28;19972;-72
2022/10/07 05:12:41;;;;;;;;;;;10.20;98.30;;;;;;5066279;28;19956;-72
2022/10/07 05:15:07;;;;;;;;;;;10.20;98.40;;;;;;5033925;28;20350;-72
2022/10/07 05:17:32;;;;;;;;;;;10.20;98.30;;;;;;5034034;28;19913;-72
2022/10/07 05:19:58;;;;;;;;;;;10.20;98.10;;;;;;5034453;28;19905;-73
2022/10/07 05:22:24;;;;;;;;;;;10.20;98.30;;;;;;5033968;28;19909;-71
2022/10/07 05:24:49;;;;;;;;;;;10.20;98.50;;;;;;5033870;28;20335;-73
2022/10/07 05:27:15;;;;;;;;;;;10.20;98.50;;;;;;5033709;28;20612;-72
2022/10/07 05:29:40;;;;;;;;;;;10.10;98.40;;;;;;5033863;28;19913;-72
2022/10/07 05:32:06;;;;;;;;;;;10.20;98.40;;;;;;5034705;28;19970;-72
2022/10/07 05:34:31;;;;;;;;;;;10.20;98.30;;;;;;5033536;28;19940;-72
2022/10/07 05:36:58;;;;;;;;;;;10.20;98.40;;;;;;5033561;28;20335;-72
2022/10/07 05:39:23;;;;;;;;;;;10.20;98.20;;;;;;5033675;28;19988;-73
2022/10/07 05:41:49;;;;;;;;;;;10.30;98.50;;;;;;5032474;28;19992;-73
2022/10/07 05:44:15;;;;;;;;;;;10.10;98.60;;;;;;5033664;28;19904;-73
2022/10/07 05:46:40;;;;;;;;;;;10.10;98.70;;;;;;5033397;28;20315;-73
2022/10/07 05:49:06;;;;;;;;;;;10.10;98.70;;;;;;5033237;28;19944;-73
2022/10/07 05:51:32;;;;;;;;;;;10.10;98.60;;;;;;5032033;28;20320;-72
2022/10/07 05:53:58;;;;;;;;;;;10.10;98.60;;;;;;5033049;28;19909;-73
2022/10/07 05:56:23;;;;;;;;;;;10.10;98.60;;;;;;5031466;28;19947;-73
2022/10/07 05:58:49;;;;;;;;;;;10.10;98.70;;;;;;5033160;28;20312;-72
2022/10/07 06:01:18;;;;;;;;;;;10.10;98.80;;;;;;5032117;28;20004;-73
2022/10/07 06:03:48;;;;;;;;;;;10.10;98.70;;;;;;5033148;28;19913;-74
2022/10/07 06:06:14;;;;;;;;;;;10.10;98.70;;;;;;5033010;28;19913;-74
2022/10/07 06:08:39;;;;;;;;;;;10.10;98.70;;;;;;5032883;28;19921;-73
2022/10/07 06:13:50;;;;;;;;;;;10.10;98.50;;;;;;5032754;28;19920;-75
2022/10/07 06:16:16;;;;;;;;;;;10.20;98.50;;;;;;5032833;28;19983;-73
2022/10/07 06:18:42;;;;;;;;;;;10.20;98.50;;;;;;5031519;28;19944;-73
2022/10/07 06:21:07;;;;;;;;;;;10.20;98.50;;;;;;5032588;28;20106;-75
2022/10/07 06:23:33;;;;;;;;;;;10.20;98.30;;;;;;5032764;28;19935;-74
2022/10/07 06:26:06;;;;;;;;;;;10.10;98.30;;;;;;5033236;28;19963;-76
2022/10/07 06:28:32;;;;;;;;;;;10.10;98.50;;;;;;5032728;28;19913;-76
2022/10/07 06:30:58;;;;;;;;;;;10.20;98.50;;;;;;5064972;28;20209;-76
2022/10/07 06:33:24;;;;;;;;;;;10.20;98.70;;;;;;5032545;28;19909;-78
2022/10/07 06:35:53;;;;;;;;;;;10.20;98.40;;;;;;5032557;28;19940;-76
2022/10/07 06:38:19;;;;;;;;;;;10.20;98.50;;;;;;5033523;28;19932;-75
2022/10/07 06:40:55;;;;;;;;;;;10.20;98.50;;;;;;5032384;28;20342;-76
2022/10/07 06:43:21;;;;;;;;;;;10.30;98.60;;;;;;5064448;28;19913;-74
2022/10/07 06:45:46;;;;;;;;;;;10.40;98.50;;;;;;5064374;28;19935;-76
2022/10/07 06:48:12;;;;;;;;;;;10.40;98.40;;;;;;5032289;28;19928;-76
2022/10/07 06:50:37;;;;;;;;;;;10.40;98.40;;;;;;5032139;28;20358;-75
2022/10/07 06:53:03;;;;;;;;;;;10.40;98.40;;;;;;5064533;28;19909;-74
2022/10/07 06:55:28;;;;;;;;;;;10.50;98.70;;;;;;5031076;28;19956;-74
2022/10/07 06:57:54;;;;;;;;;;;10.50;98.50;;;;;;5032019;28;19933;-72
2022/10/07 07:00:19;;;;;;;;;;;10.60;98.40;;;;;;5032167;28;19909;-74
2022/10/07 07:02:45;;;;;;;;;;;10.70;98.60;;;;;;5032060;28;19913;-75
2022/10/07 07:05:14;;;;;;;;;;;10.70;98.50;;;;;;5032252;28;19996;-75
2022/10/07 07:07:40;;;;;;;;;;;10.70;98.30;;;;;;5030542;28;19916;-76
2022/10/07 07:10:06;;;;;;;;;;;10.80;98.50;;;;;;5031993;28;20227;-73
2022/10/07 07:12:32;;;;;;;;;;;10.90;98.40;;;;;;5031621;28;19916;-72
2022/10/07 07:14:59;;;;;;;;;;;10.90;98.50;;;;;;5030443;28;19921;-72
2022/10/07 07:17:24;;;;;;;;;;;11.00;98.50;;;;;;5030680;28;19945;-73
2022/10/07 07:19:50;;;;;;;;;;;11.00;98.40;;;;;;5031981;28;19964;-74
2022/10/07 07:22:15;;;;;;;;;;;11.10;98.30;;;;;;5030377;28;19966;-74
2022/10/07 07:24:41;;;;;;;;;;;11.20;98.20;;;;;;5031431;28;20355;-73
2022/10/07 07:27:06;;;;;;;;;;;11.20;98.20;;;;;;5031430;28;19909;-72
2022/10/07 07:29:32;;;;;;;;;;;11.40;98.00;;;;;;5031343;28;20570;-73
2022/10/07 07:31:58;;;;;;;;;;;11.40;97.70;;;;;;5031849;28;20010;-73
2022/10/07 07:34:24;;;;;;;;;;;11.50;97.90;;;;;;5031361;28;19909;-73
2022/10/07 07:36:50;;;;;;;;;;;11.60;97.80;;;;;;5030114;28;19935;-73
2022/10/07 07:39:16;;;;;;;;;;;11.60;97.70;;;;;;5031341;28;20349;-74
2022/10/07 07:41:45;;;;;;;;;;;11.60;97.70;;;;;;5031437;28;20036;-75
2022/10/07 07:44:12;;;;;;;;;;;11.70;97.60;;;;;;5031532;28;20219;-73
2022/10/07 07:46:42;;;;;;;;;;;11.80;97.60;;;;;;5031478;28;19909;-73
2022/10/07 07:49:09;;;;;;;;;;;11.90;97.50;;;;;;5031369;28;19917;-74
2022/10/07 07:51:35;;;;;;;;;;;11.90;97.40;;;;;;5063388;28;20000;-71
2022/10/07 07:54:02;;;;;;;;;;;12.00;97.30;;;;;;5030235;28;20278;-74
2022/10/07 07:56:31;;;;;;;;;;;12.00;97.30;;;;;;5031259;28;19905;-72
2022/10/07 07:58:57;;;;;;;;;;;12.20;97.20;;;;;;5031830;28;20000;-73
2022/10/07 08:01:23;;;;;;;;;;;12.20;97.20;;;;;;5031551;28;19920;-75
2022/10/07 08:03:49;;;;;;;;;;;12.30;97.20;;;;;;5031527;28;19919;-75
2022/10/07 08:06:16;;;;;;;;;;;12.40;97.30;;;;;;5031323;28;19916;-76
2022/10/07 08:08:42;;;;;;;;;;;12.40;97.20;;;;;;5031216;28;20323;-75
2022/10/07 08:11:12;;;;;;;;;;;12.50;97.20;;;;;;5031608;28;19909;-74
2022/10/07 08:13:40;;;;;;;;;;;12.60;97.00;;;;;;5063606;28;20381;-74
2022/10/07 08:16:06;;;;;;;;;;;12.70;96.90;;;;;;5031003;28;20288;-75
2022/10/07 08:18:32;;;;;;;;;;;12.80;96.70;;;;;;5030932;28;19932;-75
2022/10/07 08:20:58;;;;;;;;;;;12.90;96.70;;;;;;5033128;28;19909;-76
2022/10/07 08:23:25;;;;;;;;;;;13.00;96.60;;;;;;5035250;28;20376;-77
2022/10/07 08:25:57;;;;;;;;;;;13.00;96.50;;;;;;5035409;28;19909;-76
2022/10/07 08:28:23;;;;;;;;;;;13.20;96.40;;;;;;5035029;28;20325;-76
2022/10/07 08:30:52;;;;;;;;;;;13.30;96.40;;;;;;5035095;28;19909;-74
2022/10/07 08:33:18;;;;;;;;;;;13.40;96.20;;;;;;5034869;28;19921;-76
2022/10/07 08:35:50;;;;;;;;;;;13.50;96.10;;;;;;5034952;28;20342;-77
2022/10/07 08:38:16;;;;;;;;;;;13.70;96.10;;;;;;5035664;28;19909;-75
2022/10/07 08:40:49;;;;;;;;;;;14.00;96.30;;;;;;5035046;28;20007;-73
2022/10/07 08:43:15;;;;;;;;;;;14.60;95.90;;;;;;5034768;28;19917;-75
2022/10/07 08:45:41;;;;;;;;;;;15.30;96.10;;;;;;5035144;28;19913;-74
2022/10/07 08:48:11;;;;;;;;;;;15.80;95.60;;;;;;5033401;28;20347;-74
2022/10/07 08:50:50;;;;;;;;;;;16.60;95.70;;;;;;5034317;28;19944;-75
2022/10/07 08:53:22;;;;;;;;;;;17.20;94.90;;;;;;5033627;28;20280;-75
2022/10/07 08:55:53;;;;;;;;;;;17.80;94.10;;;;;;5034424;28;19996;-76
2022/10/07 08:58:30;;;;;;;;;;;18.40;94.20;;;;;;5034256;28;19952;-75
2022/10/07 09:01:02;;;;;;;;;;;19.00;92.60;;;;;;5034275;28;20007;-75
2022/10/07 09:03:39;;;;;;;;;;;19.60;91.00;;;;;;5034067;28;20331;-76
2022/10/07 09:06:13;;;;;;;;;;;19.90;91.00;;;;;;5034291;28;19920;-75
2022/10/07 09:08:42;;;;;;;;;;;20.50;89.40;;;;;;5034163;28;19921;-74
2022/10/07 09:11:15;;;;;;;;;;;20.90;87.70;;;;;;5033719;28;19912;-73
2022/10/07 09:13:46;;;;;;;;;;;21.40;86.30;;;;;;5033927;28;20019;-73
2022/10/07 09:16:27;;;;;;;;;;;22.00;84.70;;;;;;5034332;28;20250;-76
2022/10/07 09:18:55;;;;;;;;;;;22.60;82.80;;;;;;5033962;28;20368;-76
2022/10/07 09:21:31;;;;;;;;;;;23.30;79.10;;;;;;5034239;28;19988;-75
2022/10/07 09:24:01;;;;;;;;;;;23.80;78.00;;;;;;5033735;28;19913;-75
2022/10/07 09:26:26;;;;;;;;;;;24.30;72.90;;;;;;5033712;28;19908;-75
2022/10/07 09:28:53;;;;;;;;;;;24.70;74.40;;;;;;5034325;28;19905;-75
2022/10/07 09:31:20;;;;;;;;;;;25.20;72.10;;;;;;5033191;28;19980;-73
2022/10/07 09:33:49;;;;;;;;;;;25.40;71.40;;;;;;5033186;28;20007;-74
2022/10/07 09:36:17;;;;;;;;;;;25.60;69.40;;;;;;5065632;28;19988;-73
2022/10/07 09:38:44;;;;;;;;;;;25.70;69.40;;;;;;5033624;28;20018;-76
2022/10/07 09:41:34;;;;;;;;;;;26.20;70.40;;;;;;5034205;28;20299;-74
2022/10/07 09:44:03;;;;;;;;;;;26.70;69.00;;;;;;5033593;28;19909;-75
2022/10/07 09:46:45;;;;;;;;;;;27.10;64.80;;;;;;5032547;28;20028;-76
2022/10/07 09:49:26;;;;;;;;;;;27.50;61.70;;;;;;5033523;28;19924;-75
2022/10/07 09:52:14;;;;;;;;;;;28.00;58.80;;;;;;5033496;28;19920;-76
2022/10/07 09:54:41;;;;;;;;;;;28.40;58.20;;;;;;5033252;28;20058;-75
2022/10/07 09:57:21;;;;;;;;;;;28.60;56.80;;;;;;5033059;28;19979;-76
2022/10/07 09:59:46;;;;;;;;;;;28.70;57.30;;;;;;5033186;28;19920;-76
2022/10/07 10:02:12;;;;;;;;;;;29.20;57.20;;;;;;5033495;28;19909;-77
2022/10/07 10:04:45;;;;;;;;;;;29.70;55.40;;;;;;5033133;28;20035;-79
2022/10/07 10:07:26;;;;;;;;;;;29.70;55.40;;;;;;5033155;28;20003;-75
2022/10/07 10:09:56;;;;;;;;;;;29.80;53.90;;;;;;5048392;28;19913;-75
2022/10/07 10:12:25;;;;;;;;;;;29.90;55.20;;;;;;5065459;28;19909;-77
2022/10/07 10:14:56;;;;;;;;;;;30.00;53.30;;;;;;5031558;28;20227;-75
2022/10/07 10:17:34;;;;;;;;;;;29.80;53.60;;;;;;5032744;28;19912;-79
2022/10/07 10:20:18;;;;;;;;;;;29.70;54.60;;;;;;5033258;28;19984;-74
2022/10/07 10:22:43;;;;;;;;;;;29.50;53.10;;;;;;5033199;28;19913;-77
2022/10/07 10:28:04;;;;;;;;;;;28.70;53.20;;;;;;5032753;28;19947;-76
2022/10/07 10:30:30;;;;;;;;;;;28.70;53.10;;;;;;5032489;28;20274;-73
2022/10/07 10:32:59;;;;;;;;;;;28.70;52.70;;;;;;5032420;28;19996;-74
2022/10/07 10:35:29;;;;;;;;;;;29.20;54.00;;;;;;5032645;28;20295;-73
2022/10/07 10:38:02;;;;;;;;;;;28.90;51.40;;;;;;5033091;28;19983;-75
2022/10/07 10:40:33;;;;;;;;;;;28.90;51.80;;;;;;5032140;28;19909;-74
2022/10/07 10:43:09;;;;;;;;;;;28.80;51.00;;;;;;5030629;28;19916;-73
2022/10/07 10:45:39;;;;;;;;;;;28.80;52.80;;;;;;5032498;28;20349;-78
2022/10/07 10:48:23;;;;;;;;;;;28.70;52.40;;;;;;5032216;28;19913;-74
2022/10/07 10:50:53;;;;;;;;;;;29.00;52.40;;;;;;5032076;28;20270;-75
2022/10/07 10:53:19;;;;;;;;;;;29.60;52.90;;;;;;5048062;28;19910;-74
2022/10/07 10:55:57;;;;;;;;;;;29.70;50.30;;;;;;5028125;28;19957;-75
2022/10/07 10:58:23;;;;;;;;;;;29.80;49.90;;;;;;5011229;28;19909;-74
2022/10/07 11:01:02;;;;;;;;;;;29.90;48.40;;;;;;5012704;28;20358;-77
2022/10/07 11:03:46;;;;;;;;;;;29.70;48.30;;;;;;5012174;28;19929;-73
2022/10/07 11:06:15;;;;;;;;;;;30.10;49.50;;;;;;5012316;28;20064;-74
2022/10/07 11:08:41;;;;;;;;;;;29.70;48.60;;;;;;5012490;28;19970;-72
2022/10/07 11:11:13;;;;;;;;;;;29.60;48.70;;;;;;5012610;28;20021;-74
2022/10/07 11:13:59;;;;;;;;;;;29.90;48.50;;;;;;5012004;28;20008;-74
2022/10/07 11:16:30;;;;;;;;;;;30.10;49.30;;;;;;5011951;28;20095;-75
2022/10/07 11:18:59;;;;;;;;;;;29.00;47.50;;;;;;5012095;28;19913;-77
2022/10/07 11:21:31;;;;;;;;;;;27.10;49.60;;;;;;5011837;28;19909;-72
2022/10/07 11:24:00;;;;;;;;;;;26.90;49.90;;;;;;5011815;28;20066;-76
2022/10/07 11:26:28;;;;;;;;;;;26.60;50.60;;;;;;5012312;28;20008;-76
2022/10/07 11:28:55;;;;;;;;;;;27.00;51.10;;;;;;5012487;28;20267;-74
2022/10/07 11:31:29;;;;;;;;;;;27.30;51.40;;;;;;5012113;28;19909;-74
2022/10/07 11:34:13;;;;;;;;;;;27.90;50.10;;;;;;5012148;28;19910;-75
2022/10/07 11:36:41;;;;;;;;;;;27.40;49.50;;;;;;5011580;28;19966;-75
2022/10/07 11:39:07;;;;;;;;;;;27.00;50.80;;;;;;5011644;28;20319;-73
2022/10/07 11:41:34;;;;;;;;;;;26.70;51.20;;;;;;5011545;28;19905;-72
2022/10/07 11:44:08;;;;;;;;;;;26.20;51.50;;;;;;5011890;28;19924;-73
2022/10/07 11:46:37;;;;;;;;;;;26.00;52.20;;;;;;5011724;28;20347;-73
2022/10/07 11:49:11;;;;;;;;;;;25.50;53.10;;;;;;5011284;28;19989;-73
2022/10/07 11:51:39;;;;;;;;;;;24.60;54.10;;;;;;5011214;28;19920;-73
2022/10/07 11:54:06;;;;;;;;;;;24.10;54.40;;;;;;5017599;28;19909;-71
2022/10/07 11:56:44;;;;;;;;;;;23.90;55.50;;;;;;5028996;28;19905;-70
2022/10/07 11:59:26;;;;;;;;;;;23.60;55.90;;;;;;5011826;28;19905;-72
2022/10/07 12:01:52;;;;;;;;;;;23.50;55.50;;;;;;5031225;28;19909;-73
2022/10/07 12:04:34;;;;;;;;;;;23.00;56.10;;;;;;5031120;28;19915;-73
2022/10/07 12:07:18;;;;;;;;;;;22.80;57.20;;;;;;5031234;28;20451;-72
2022/10/07 12:10:02;;;;;;;;;;;22.70;57.50;;;;;;5029886;28;19979;-71
2022/10/07 12:12:43;;;;;;;;;;;22.90;57.70;;;;;;5031076;28;19920;-72
2022/10/07 12:15:27;;;;;;;;;;;22.80;57.70;;;;;;5030788;28;19995;-72
2022/10/07 12:18:03;;;;;;;;;;;22.80;58.00;;;;;;5030761;28;20571;-71
2022/10/07 12:20:47;;;;;;;;;;;22.90;58.00;;;;;;5030807;28;20002;-72
2022/10/07 12:23:15;;;;;;;;;;;22.40;58.30;;;;;;5030992;28;19913;-72
2022/10/07 12:25:43;;;;;;;;;;;22.50;58.80;;;;;;5029732;28;20343;-73
2022/10/07 12:28:22;;;;;;;;;;;22.10;59.50;;;;;;5030742;28;20058;-71
2022/10/07 12:30:49;;;;;;;;;;;22.20;59.40;;;;;;5029768;28;19920;-71
2022/10/07 12:33:24;;;;;;;;;;;21.90;60.10;;;;;;5031166;28;19909;-72
2022/10/07 12:35:49;;;;;;;;;;;22.00;60.00;;;;;;5030833;28;19992;-71
2022/10/07 12:38:16;;;;;;;;;;;21.90;59.70;;;;;;5031122;28;19992;-72
2022/10/07 12:40:45;;;;;;;;;;;21.90;60.00;;;;;;5062886;28;19909;-73
2022/10/07 12:43:22;;;;;;;;;;;21.50;60.80;;;;;;5029604;28;19936;-71
2022/10/07 12:45:48;;;;;;;;;;;21.60;60.80;;;;;;5030677;28;19945;-71
2022/10/07 12:48:19;;;;;;;;;;;21.50;61.30;;;;;;5030633;28;20010;-72
2022/10/07 12:50:46;;;;;;;;;;;21.40;62.30;;;;;;5030579;28;19935;-70
2022/10/07 12:53:11;;;;;;;;;;;21.40;61.70;;;;;;5063232;28;19909;-72
2022/10/07 12:55:40;;;;;;;;;;;21.40;61.40;;;;;;5030509;28;19936;-71
2022/10/07 13:01:06;;;;;;;;;;;21.30;61.50;;;;;;5030632;28;19924;-72
2022/10/07 13:03:51;;;;;;;;;;;21.00;61.80;;;;;;5029655;28;19920;-72
2022/10/07 13:06:19;;;;;;;;;;;21.10;61.90;;;;;;5031325;28;19920;-73
2022/10/07 13:09:01;;;;;;;;;;;21.10;61.90;;;;;;5033905;28;20348;-73
2022/10/07 13:11:45;;;;;;;;;;;20.90;62.10;;;;;;5034056;28;19916;-73
2022/10/07 13:14:36;;;;;;;;;;;20.80;62.70;;;;;;5032983;28;19928;-73
2022/10/07 13:17:05;;;;;;;;;;;20.90;63.50;;;;;;5034162;28;19909;-72
2022/10/07 13:19:49;;;;;;;;;;;20.80;63.40;;;;;;5033959;28;20283;-73
2022/10/07 13:22:15;;;;;;;;;;;21.00;62.60;;;;;;5033774;28;19909;-72
2022/10/07 13:24:52;;;;;;;;;;;21.10;62.30;;;;;;5033774;28;20263;-72
2022/10/07 13:27:19;;;;;;;;;;;21.00;62.90;;;;;;5034337;28;19908;-74
2022/10/07 13:29:45;;;;;;;;;;;20.90;62.80;;;;;;5033707;28;19913;-74
2022/10/07 13:32:22;;;;;;;;;;;20.90;63.20;;;;;;5034336;28;19912;-73
2022/10/07 13:34:48;;;;;;;;;;;20.90;63.10;;;;;;5034044;28;19999;-73
2022/10/07 13:37:33;;;;;;;;;;;20.90;63.70;;;;;;5033396;28;20028;-73
2022/10/07 13:40:19;;;;;;;;;;;20.90;63.60;;;;;;5033560;28;19917;-73
2022/10/07 13:42:45;;;;;;;;;;;20.80;64.10;;;;;;5033423;28;19909;-72
2022/10/07 13:45:12;;;;;;;;;;;20.80;63.80;;;;;;5065652;28;20030;-70
2022/10/07 13:47:38;;;;;;;;;;;20.80;63.50;;;;;;5033098;28;20258;-73
2022/10/07 13:50:05;;;;;;;;;;;20.60;63.70;;;;;;5033572;28;19909;-73
2022/10/07 13:52:33;;;;;;;;;;;20.60;63.90;;;;;;5031936;28;19909;-73
2022/10/07 13:54:59;;;;;;;;;;;20.60;63.80;;;;;;5065435;28;19996;-72
2022/10/07 13:57:28;;;;;;;;;;;20.60;63.70;;;;;;5033126;28;20112;-72
2022/10/07 13:59:53;;;;;;;;;;;20.60;64.40;;;;;;5031920;28;20379;-72
2022/10/07 14:02:19;;;;;;;;;;;20.70;64.40;;;;;;5033458;28;20047;-72
2022/10/07 14:04:56;;;;;;;;;;;20.70;64.50;;;;;;5033299;28;19909;-72
2022/10/07 14:07:22;;;;;;;;;;;20.50;64.10;;;;;;5033039;28;20386;-72
2022/10/07 14:09:48;;;;;;;;;;;20.40;64.60;;;;;;5033054;28;19966;-72
2022/10/07 14:12:16;;;;;;;;;;;20.30;65.00;;;;;;5032755;28;19928;-72
2022/10/07 14:14:43;;;;;;;;;;;20.40;65.00;;;;;;5032804;28;19925;-72
2022/10/07 14:17:17;;;;;;;;;;;20.50;64.90;;;;;;5032849;28;19996;-72
2022/10/07 14:19:49;;;;;;;;;;;20.40;64.90;;;;;;5032830;28;20083;-72
2022/10/07 14:22:16;;;;;;;;;;;20.30;64.60;;;;;;5065652;28;20339;-72
2022/10/07 14:24:50;;;;;;;;;;;20.20;64.60;;;;;;5032524;28;20358;-73
2022/10/07 14:27:34;;;;;;;;;;;20.20;64.50;;;;;;5033166;28;20133;-72
2022/10/07 14:30:00;;;;;;;;;;;20.10;64.10;;;;;;5032019;28;19924;-72